sensor_id;sensor_type;location;lat;lon;timestamp;temperature;humidity
16825;DHT22;8529;48.108;-1.706;2022-09-17T00:00:19;13.40;99.90
16825;DHT22;8529;48.108;-1.706;2022-09-17T00:02:49;13.40;99.90
16825;DHT22;8529;48.108;-1.706;2022-09-17T00:05:19;13.40;99.90
16825;DHT22;8529;48.108;-1.706;2022-09-17T00:07:46;13.50;99.90
16825;DHT22;8529;48.108;-1.706;2022-09-17T00:10:14;13.60;99.90
16825;DHT22;8529;48.108;-1.706;2022-09-17T00:12:41;13.60;99.90
16825;DHT22;8529;48.108;-1.706;2022-09-17T00:15:09;13.70;99.90
16825;DHT22;8529;48.108;-1.706;2022-09-17T00:17:36;13.70;99.90
16825;DHT22;8529;48.108;-1.706;2022-09-17T00:20:04;13.60;99.90
16825;DHT22;8529;48.108;-1.706;2022-09-17T00:22:32;13.40;99.90
16825;DHT22;8529;48.108;-1.706;2022-09-17T00:24:59;13.30;99.90
16825;DHT22;8529;48.108;-1.706;2022-09-17T00:27:27;13.20;99.90
16825;DHT22;8529;48.108;-1.706;2022-09-17T00:29:54;13.10;99.90
16825;DHT22;8529;48.108;-1.706;2022-09-17T00:32:21;13.10;99.90
16825;DHT22;8529;48.108;-1.706;2022-09-17T00:34:48;13.00;99.90
16825;DHT22;8529;48.108;-1.706;2022-09-17T00:37:16;13.00;99.90
16825;DHT22;8529;48.108;-1.706;2022-09-17T00:39:43;13.00;99.90
16825;DHT22;8529;48.108;-1.706;2022-09-17T00:42:11;13.00;99.90
16825;DHT22;8529;48.108;-1.706;2022-09-17T00:44:46;12.90;99.90
16825;DHT22;8529;48.108;-1.706;2022-09-17T00:47:21;12.90;99.90
16825;DHT22;8529;48.108;-1.706;2022-09-17T00:49:51;13.00;99.90
16825;DHT22;8529;48.108;-1.706;2022-09-17T00:52:23;13.00;99.90
16825;DHT22;8529;48.108;-1.706;2022-09-17T00:54:54;13.00;99.90
16825;DHT22;8529;48.108;-1.706;2022-09-17T00:57:22;13.00;99.90
16825;DHT22;8529;48.108;-1.706;2022-09-17T00:59:51;12.90;99.90
16825;DHT22;8529;48.108;-1.706;2022-09-17T01:02:19;12.90;99.90
16825;DHT22;8529;48.108;-1.706;2022-09-17T01:04:46;13.00;99.90
16825;DHT22;8529;48.108;-1.706;2022-09-17T01:07:31;13.20;99.90
16825;DHT22;8529;48.108;-1.706;2022-09-17T01:10:07;13.20;99.90
16825;DHT22;8529;48.108;-1.706;2022-09-17T01:12:58;13.30;99.90
16825;DHT22;8529;48.108;-1.706;2022-09-17T01:15:34;13.10;99.90
16825;DHT22;8529;48.108;-1.706;2022-09-17T01:18:15;12.80;99.90
16825;DHT22;8529;48.108;-1.706;2022-09-17T01:24:00;12.60;99.90
16825;DHT22;8529;48.108;-1.706;2022-09-17T01:29:47;12.60;99.90
16825;DHT22;8529;48.108;-1.706;2022-09-17T01:32:22;12.50;99.90
16825;DHT22;8529;48.108;-1.706;2022-09-17T01:34:56;12.50;99.90
16825;DHT22;8529;48.108;-1.706;2022-09-17T01:37:30;12.50;99.90
16825;DHT22;8529;48.108;-1.706;2022-09-17T01:40:03;12.40;99.90
16825;DHT22;8529;48.108;-1.706;2022-09-17T01:42:36;12.40;99.90
16825;DHT22;8529;48.108;-1.706;2022-09-17T01:45:09;12.30;99.90
16825;DHT22;8529;48.108;-1.706;2022-09-17T01:47:44;12.30;99.90
16825;DHT22;8529;48.108;-1.706;2022-09-17T01:50:16;12.30;99.90
16825;DHT22;8529;48.108;-1.706;2022-09-17T01:52:48;12.40;99.90
16825;DHT22;8529;48.108;-1.706;2022-09-17T01:55:16;12.60;99.90
16825;DHT22;8529;48.108;-1.706;2022-09-17T01:57:47;12.80;99.90
16825;DHT22;8529;48.108;-1.706;2022-09-17T02:00:16;12.80;99.90
16825;DHT22;8529;48.108;-1.706;2022-09-17T02:02:47;12.80;99.90
16825;DHT22;8529;48.108;-1.706;2022-09-17T02:05:19;12.80;99.90
16825;DHT22;8529;48.108;-1.706;2022-09-17T02:07:51;12.80;99.90
16825;DHT22;8529;48.108;-1.706;2022-09-17T02:10:22;12.80;99.90
16825;DHT22;8529;48.108;-1.706;2022-09-17T02:12:56;12.70;99.90
16825;DHT22;8529;48.108;-1.706;2022-09-17T02:15:28;12.50;99.90
16825;DHT22;8529;48.108;-1.706;2022-09-17T02:18:04;12.20;99.90
16825;DHT22;8529;48.108;-1.706;2022-09-17T02:20:38;12.20;99.90
16825;DHT22;8529;48.108;-1.706;2022-09-17T02:23:10;12.00;99.90
16825;DHT22;8529;48.108;-1.706;2022-09-17T02:25:43;12.00;99.90
16825;DHT22;8529;48.108;-1.706;2022-09-17T02:28:16;11.90;99.90
16825;DHT22;8529;48.108;-1.706;2022-09-17T02:30:47;11.90;99.90
16825;DHT22;8529;48.108;-1.706;2022-09-17T02:33:17;11.80;99.90
16825;DHT22;8529;48.108;-1.706;2022-09-17T02:35:45;11.80;99.90
16825;DHT22;8529;48.108;-1.706;2022-09-17T02:38:12;11.80;99.90
16825;DHT22;8529;48.108;-1.706;2022-09-17T02:40:46;11.80;99.90
16825;DHT22;8529;48.108;-1.706;2022-09-17T02:43:21;11.80;99.90
16825;DHT22;8529;48.108;-1.706;2022-09-17T02:46:00;11.80;99.90
16825;DHT22;8529;48.108;-1.706;2022-09-17T02:48:55;11.80;99.90
16825;DHT22;8529;48.108;-1.706;2022-09-17T02:51:34;11.80;99.90
16825;DHT22;8529;48.108;-1.706;2022-09-17T02:54:13;11.80;99.90
16825;DHT22;8529;48.108;-1.706;2022-09-17T02:56:47;11.80;99.90
16825;DHT22;8529;48.108;-1.706;2022-09-17T02:59:20;11.70;99.90
16825;DHT22;8529;48.108;-1.706;2022-09-17T03:01:53;11.70;99.90
16825;DHT22;8529;48.108;-1.706;2022-09-17T03:04:26;11.80;99.90
16825;DHT22;8529;48.108;-1.706;2022-09-17T03:06:54;11.90;99.90
16825;DHT22;8529;48.108;-1.706;2022-09-17T03:09:23;11.80;99.90
16825;DHT22;8529;48.108;-1.706;2022-09-17T03:11:50;11.80;99.90
16825;DHT22;8529;48.108;-1.706;2022-09-17T03:14:17;11.80;99.90
16825;DHT22;8529;48.108;-1.706;2022-09-17T03:16:45;11.60;99.90
16825;DHT22;8529;48.108;-1.706;2022-09-17T03:19:12;11.60;99.90
16825;DHT22;8529;48.108;-1.706;2022-09-17T03:21:40;11.60;99.90
16825;DHT22;8529;48.108;-1.706;2022-09-17T03:24:07;11.50;99.90
16825;DHT22;8529;48.108;-1.706;2022-09-17T03:26:36;11.50;99.90
16825;DHT22;8529;48.108;-1.706;2022-09-17T03:29:03;11.40;99.90
16825;DHT22;8529;48.108;-1.706;2022-09-17T03:31:30;11.40;99.90
16825;DHT22;8529;48.108;-1.706;2022-09-17T03:33:57;11.40;99.90
16825;DHT22;8529;48.108;-1.706;2022-09-17T03:36:24;11.30;99.90
16825;DHT22;8529;48.108;-1.706;2022-09-17T03:38:54;11.20;99.90
16825;DHT22;8529;48.108;-1.706;2022-09-17T03:41:22;11.20;99.90
16825;DHT22;8529;48.108;-1.706;2022-09-17T03:43:50;11.20;99.90
16825;DHT22;8529;48.108;-1.706;2022-09-17T03:46:17;11.30;99.90
16825;DHT22;8529;48.108;-1.706;2022-09-17T03:48:44;11.20;99.90
16825;DHT22;8529;48.108;-1.706;2022-09-17T03:51:11;11.20;99.90
16825;DHT22;8529;48.108;-1.706;2022-09-17T03:53:38;11.20;99.90
16825;DHT22;8529;48.108;-1.706;2022-09-17T03:56:07;11.20;99.90
16825;DHT22;8529;48.108;-1.706;2022-09-17T03:58:34;11.20;99.90
16825;DHT22;8529;48.108;-1.706;2022-09-17T04:01:01;11.20;99.90
16825;DHT22;8529;48.108;-1.706;2022-09-17T04:03:29;11.20;99.90
16825;DHT22;8529;48.108;-1.706;2022-09-17T04:05:56;11.10;99.90
16825;DHT22;8529;48.108;-1.706;2022-09-17T04:08:23;11.20;99.90
16825;DHT22;8529;48.108;-1.706;2022-09-17T04:10:50;11.10;99.90
16825;DHT22;8529;48.108;-1.706;2022-09-17T04:13:19;11.10;99.90
16825;DHT22;8529;48.108;-1.706;2022-09-17T04:15:46;11.10;99.90
16825;DHT22;8529;48.108;-1.706;2022-09-17T04:18:13;11.00;99.90
16825;DHT22;8529;48.108;-1.706;2022-09-17T04:20:40;11.10;99.90
16825;DHT22;8529;48.108;-1.706;2022-09-17T04:23:09;11.10;99.90
16825;DHT22;8529;48.108;-1.706;2022-09-17T04:25:36;11.10;99.90
16825;DHT22;8529;48.108;-1.706;2022-09-17T04:28:03;11.10;99.90
16825;DHT22;8529;48.108;-1.706;2022-09-17T04:30:32;11.00;99.90
16825;DHT22;8529;48.108;-1.706;2022-09-17T04:32:58;11.10;99.90
16825;DHT22;8529;48.108;-1.706;2022-09-17T04:35:25;11.20;99.90
16825;DHT22;8529;48.108;-1.706;2022-09-17T04:37:52;11.30;99.90
16825;DHT22;8529;48.108;-1.706;2022-09-17T04:40:20;11.20;99.90
16825;DHT22;8529;48.108;-1.706;2022-09-17T04:42:47;11.20;99.90
16825;DHT22;8529;48.108;-1.706;2022-09-17T04:45:14;11.10;99.90
16825;DHT22;8529;48.108;-1.706;2022-09-17T04:47:42;10.90;99.90
16825;DHT22;8529;48.108;-1.706;2022-09-17T04:50:09;10.90;99.90
16825;DHT22;8529;48.108;-1.706;2022-09-17T04:52:36;10.80;99.90
16825;DHT22;8529;48.108;-1.706;2022-09-17T04:55:08;10.70;99.90
16825;DHT22;8529;48.108;-1.706;2022-09-17T04:57:35;10.70;99.90
16825;DHT22;8529;48.108;-1.706;2022-09-17T05:00:02;10.70;99.90
16825;DHT22;8529;48.108;-1.706;2022-09-17T05:02:29;10.70;99.90
16825;DHT22;8529;48.108;-1.706;2022-09-17T05:04:57;10.70;99.90
16825;DHT22;8529;48.108;-1.706;2022-09-17T05:07:24;10.70;99.90
16825;DHT22;8529;48.108;-1.706;2022-09-17T05:09:51;10.70;99.90
16825;DHT22;8529;48.108;-1.706;2022-09-17T05:12:18;10.60;99.90
16825;DHT22;8529;48.108;-1.706;2022-09-17T05:14:45;10.60;99.90
16825;DHT22;8529;48.108;-1.706;2022-09-17T05:17:12;10.60;99.90
16825;DHT22;8529;48.108;-1.706;2022-09-17T05:19:39;10.60;99.90
16825;DHT22;8529;48.108;-1.706;2022-09-17T05:22:07;10.70;99.90
16825;DHT22;8529;48.108;-1.706;2022-09-17T05:24:34;10.80;99.90
16825;DHT22;8529;48.108;-1.706;2022-09-17T05:27:04;10.90;99.90
16825;DHT22;8529;48.108;-1.706;2022-09-17T05:29:31;11.00;99.90
16825;DHT22;8529;48.108;-1.706;2022-09-17T05:31:58;11.20;99.90
16825;DHT22;8529;48.108;-1.706;2022-09-17T05:34:25;11.20;99.90
16825;DHT22;8529;48.108;-1.706;2022-09-17T05:36:52;11.20;99.90
16825;DHT22;8529;48.108;-1.706;2022-09-17T05:39:20;11.20;99.90
16825;DHT22;8529;48.108;-1.706;2022-09-17T05:41:50;11.10;99.90
16825;DHT22;8529;48.108;-1.706;2022-09-17T05:44:17;11.00;99.90
16825;DHT22;8529;48.108;-1.706;2022-09-17T05:46:44;11.10;99.90
16825;DHT22;8529;48.108;-1.706;2022-09-17T05:49:11;11.10;99.90
16825;DHT22;8529;48.108;-1.706;2022-09-17T05:51:40;11.20;99.90
16825;DHT22;8529;48.108;-1.706;2022-09-17T05:54:07;11.20;99.90
16825;DHT22;8529;48.108;-1.706;2022-09-17T05:56:35;11.20;99.90
16825;DHT22;8529;48.108;-1.706;2022-09-17T05:59:02;11.20;99.90
16825;DHT22;8529;48.108;-1.706;2022-09-17T06:01:29;11.30;99.90
16825;DHT22;8529;48.108;-1.706;2022-09-17T06:03:56;11.40;99.90
16825;DHT22;8529;48.108;-1.706;2022-09-17T06:06:23;11.30;99.90
16825;DHT22;8529;48.108;-1.706;2022-09-17T06:08:53;11.40;99.90
16825;DHT22;8529;48.108;-1.706;2022-09-17T06:11:20;11.40;99.90
16825;DHT22;8529;48.108;-1.706;2022-09-17T06:13:51;11.40;99.90
16825;DHT22;8529;48.108;-1.706;2022-09-17T06:16:19;11.40;99.90
16825;DHT22;8529;48.108;-1.706;2022-09-17T06:18:46;11.50;99.90
16825;DHT22;8529;48.108;-1.706;2022-09-17T06:21:14;11.40;99.90
16825;DHT22;8529;48.108;-1.706;2022-09-17T06:23:42;11.50;99.90
16825;DHT22;8529;48.108;-1.706;2022-09-17T06:26:09;11.40;99.90
16825;DHT22;8529;48.108;-1.706;2022-09-17T06:28:37;11.40;99.90
16825;DHT22;8529;48.108;-1.706;2022-09-17T06:31:07;11.40;99.90
16825;DHT22;8529;48.108;-1.706;2022-09-17T06:33:34;11.50;99.90
16825;DHT22;8529;48.108;-1.706;2022-09-17T06:36:03;11.50;99.90
16825;DHT22;8529;48.108;-1.706;2022-09-17T06:38:33;11.50;99.90
16825;DHT22;8529;48.108;-1.706;2022-09-17T06:41:00;11.60;99.90
16825;DHT22;8529;48.108;-1.706;2022-09-17T06:43:27;11.60;99.90
16825;DHT22;8529;48.108;-1.706;2022-09-17T06:45:56;11.70;99.90
16825;DHT22;8529;48.108;-1.706;2022-09-17T06:48:25;11.70;99.90
16825;DHT22;8529;48.108;-1.706;2022-09-17T06:50:53;11.80;99.90
16825;DHT22;8529;48.108;-1.706;2022-09-17T06:53:21;11.80;99.90
16825;DHT22;8529;48.108;-1.706;2022-09-17T06:55:48;11.90;99.90
16825;DHT22;8529;48.108;-1.706;2022-09-17T06:58:15;12.00;99.90
16825;DHT22;8529;48.108;-1.706;2022-09-17T07:00:42;12.00;99.90
16825;DHT22;8529;48.108;-1.706;2022-09-17T07:03:09;12.00;99.90
16825;DHT22;8529;48.108;-1.706;2022-09-17T07:05:37;12.00;99.90
16825;DHT22;8529;48.108;-1.706;2022-09-17T07:08:05;12.10;99.90
16825;DHT22;8529;48.108;-1.706;2022-09-17T07:10:32;12.10;99.90
16825;DHT22;8529;48.108;-1.706;2022-09-17T07:12:59;12.20;99.90
16825;DHT22;8529;48.108;-1.706;2022-09-17T07:15:26;12.20;99.90
16825;DHT22;8529;48.108;-1.706;2022-09-17T07:17:52;12.30;99.90
16825;DHT22;8529;48.108;-1.706;2022-09-17T07:20:20;12.30;99.90
16825;DHT22;8529;48.108;-1.706;2022-09-17T07:22:55;12.40;99.90
16825;DHT22;8529;48.108;-1.706;2022-09-17T07:25:22;12.40;99.90
16825;DHT22;8529;48.108;-1.706;2022-09-17T07:27:50;12.40;99.90
16825;DHT22;8529;48.108;-1.706;2022-09-17T07:30:17;12.50;99.90
16825;DHT22;8529;48.108;-1.706;2022-09-17T07:32:44;12.60;99.90
16825;DHT22;8529;48.108;-1.706;2022-09-17T07:35:12;12.70;99.90
16825;DHT22;8529;48.108;-1.706;2022-09-17T07:37:40;12.70;99.90
16825;DHT22;8529;48.108;-1.706;2022-09-17T07:40:08;12.80;99.90
16825;DHT22;8529;48.108;-1.706;2022-09-17T07:42:35;12.90;99.90
16825;DHT22;8529;48.108;-1.706;2022-09-17T07:45:03;13.00;99.90
16825;DHT22;8529;48.108;-1.706;2022-09-17T07:47:30;13.10;99.90
16825;DHT22;8529;48.108;-1.706;2022-09-17T07:49:57;13.10;99.90
16825;DHT22;8529;48.108;-1.706;2022-09-17T07:52:24;13.20;99.90
16825;DHT22;8529;48.108;-1.706;2022-09-17T07:54:51;13.30;99.90
16825;DHT22;8529;48.108;-1.706;2022-09-17T07:57:19;13.40;99.90
16825;DHT22;8529;48.108;-1.706;2022-09-17T07:59:46;13.40;99.90
16825;DHT22;8529;48.108;-1.706;2022-09-17T08:02:13;13.40;99.90
16825;DHT22;8529;48.108;-1.706;2022-09-17T08:04:41;13.50;99.90
16825;DHT22;8529;48.108;-1.706;2022-09-17T08:07:10;13.60;99.90
16825;DHT22;8529;48.108;-1.706;2022-09-17T08:09:38;13.60;99.90
16825;DHT22;8529;48.108;-1.706;2022-09-17T08:12:05;13.70;99.90
16825;DHT22;8529;48.108;-1.706;2022-09-17T08:14:34;13.80;99.90
16825;DHT22;8529;48.108;-1.706;2022-09-17T08:17:01;13.80;99.90
16825;DHT22;8529;48.108;-1.706;2022-09-17T08:19:30;13.90;99.90
16825;DHT22;8529;48.108;-1.706;2022-09-17T08:21:57;14.00;99.90
16825;DHT22;8529;48.108;-1.706;2022-09-17T08:24:24;14.00;99.90
16825;DHT22;8529;48.108;-1.706;2022-09-17T08:26:52;14.10;99.90
16825;DHT22;8529;48.108;-1.706;2022-09-17T08:29:19;14.10;99.90
16825;DHT22;8529;48.108;-1.706;2022-09-17T08:31:47;14.20;99.90
16825;DHT22;8529;48.108;-1.706;2022-09-17T08:34:14;14.30;99.90
16825;DHT22;8529;48.108;-1.706;2022-09-17T08:36:42;14.40;99.90
16825;DHT22;8529;48.108;-1.706;2022-09-17T08:39:09;14.40;99.90
16825;DHT22;8529;48.108;-1.706;2022-09-17T08:41:51;14.50;99.90
16825;DHT22;8529;48.108;-1.706;2022-09-17T08:44:25;14.50;99.50
16825;DHT22;8529;48.108;-1.706;2022-09-17T08:46:58;14.50;98.80
16825;DHT22;8529;48.108;-1.706;2022-09-17T08:49:33;14.60;99.00
16825;DHT22;8529;48.108;-1.706;2022-09-17T08:52:16;14.60;98.90
16825;DHT22;8529;48.108;-1.706;2022-09-17T08:54:56;14.70;98.60
16825;DHT22;8529;48.108;-1.706;2022-09-17T08:57:30;14.70;98.70
16825;DHT22;8529;48.108;-1.706;2022-09-17T09:00:02;14.80;98.20
16825;DHT22;8529;48.108;-1.706;2022-09-17T09:05:35;14.90;98.50
16825;DHT22;8529;48.108;-1.706;2022-09-17T09:08:12;14.90;98.70
16825;DHT22;8529;48.108;-1.706;2022-09-17T09:10:46;15.00;99.00
16825;DHT22;8529;48.108;-1.706;2022-09-17T09:13:17;15.10;98.70
16825;DHT22;8529;48.108;-1.706;2022-09-17T09:15:47;15.20;98.50
16825;DHT22;8529;48.108;-1.706;2022-09-17T09:18:18;15.30;98.60
16825;DHT22;8529;48.108;-1.706;2022-09-17T09:20:52;15.50;98.10
16825;DHT22;8529;48.108;-1.706;2022-09-17T09:23:26;15.80;97.40
16825;DHT22;8529;48.108;-1.706;2022-09-17T09:26:00;16.20;96.10
16825;DHT22;8529;48.108;-1.706;2022-09-17T09:28:45;16.30;95.50
16825;DHT22;8529;48.108;-1.706;2022-09-17T09:31:31;16.60;94.80
16825;DHT22;8529;48.108;-1.706;2022-09-17T09:34:01;16.80;94.50
16825;DHT22;8529;48.108;-1.706;2022-09-17T09:36:32;17.00;94.00
16825;DHT22;8529;48.108;-1.706;2022-09-17T09:39:01;17.10;93.50
16825;DHT22;8529;48.108;-1.706;2022-09-17T09:41:33;17.20;92.60
16825;DHT22;8529;48.108;-1.706;2022-09-17T09:44:03;17.30;91.60
16825;DHT22;8529;48.108;-1.706;2022-09-17T09:46:54;17.40;91.50
16825;DHT22;8529;48.108;-1.706;2022-09-17T09:49:36;17.50;91.30
16825;DHT22;8529;48.108;-1.706;2022-09-17T09:52:24;17.60;90.90
16825;DHT22;8529;48.108;-1.706;2022-09-17T09:55:01;17.70;90.50
16825;DHT22;8529;48.108;-1.706;2022-09-17T09:57:36;17.70;90.20
16825;DHT22;8529;48.108;-1.706;2022-09-17T10:00:29;17.80;90.00
16825;DHT22;8529;48.108;-1.706;2022-09-17T10:03:02;17.80;90.40
16825;DHT22;8529;48.108;-1.706;2022-09-17T10:05:31;17.80;89.70
16825;DHT22;8529;48.108;-1.706;2022-09-17T10:08:08;17.90;89.30
16825;DHT22;8529;48.108;-1.706;2022-09-17T10:10:37;18.00;89.00
16825;DHT22;8529;48.108;-1.706;2022-09-17T10:13:19;18.00;89.20
16825;DHT22;8529;48.108;-1.706;2022-09-17T10:15:46;18.10;88.90
16825;DHT22;8529;48.108;-1.706;2022-09-17T10:18:17;18.10;89.70
16825;DHT22;8529;48.108;-1.706;2022-09-17T10:20:52;18.00;89.40
16825;DHT22;8529;48.108;-1.706;2022-09-17T10:23:22;18.00;91.10
16825;DHT22;8529;48.108;-1.706;2022-09-17T10:25:49;18.00;88.90
16825;DHT22;8529;48.108;-1.706;2022-09-17T10:28:43;18.00;89.70
16825;DHT22;8529;48.108;-1.706;2022-09-17T10:31:11;18.10;88.10
16825;DHT22;8529;48.108;-1.706;2022-09-17T10:33:49;18.20;88.10
16825;DHT22;8529;48.108;-1.706;2022-09-17T10:36:35;18.30;86.90
16825;DHT22;8529;48.108;-1.706;2022-09-17T10:39:26;18.30;86.30
16825;DHT22;8529;48.108;-1.706;2022-09-17T10:41:55;18.30;86.70
16825;DHT22;8529;48.108;-1.706;2022-09-17T10:44:24;18.50;85.60
16825;DHT22;8529;48.108;-1.706;2022-09-17T10:46:51;18.40;85.10
16825;DHT22;8529;48.108;-1.706;2022-09-17T10:49:27;18.40;85.80
16825;DHT22;8529;48.108;-1.706;2022-09-17T10:52:05;18.40;86.10
16825;DHT22;8529;48.108;-1.706;2022-09-17T10:55:04;18.40;86.00
16825;DHT22;8529;48.108;-1.706;2022-09-17T10:57:54;18.50;85.60
16825;DHT22;8529;48.108;-1.706;2022-09-17T11:00:23;18.60;85.60
16825;DHT22;8529;48.108;-1.706;2022-09-17T11:06:43;18.50;82.20
16825;DHT22;8529;48.108;-1.706;2022-09-17T11:09:22;18.40;82.70
16825;DHT22;8529;48.108;-1.706;2022-09-17T11:12:00;18.30;83.40
16825;DHT22;8529;48.108;-1.706;2022-09-17T11:14:45;18.30;82.80
16825;DHT22;8529;48.108;-1.706;2022-09-17T11:20:12;18.20;82.40
16825;DHT22;8529;48.108;-1.706;2022-09-17T11:22:50;18.20;82.00
16825;DHT22;8529;48.108;-1.706;2022-09-17T11:25:37;18.20;83.70
16825;DHT22;8529;48.108;-1.706;2022-09-17T11:28:23;18.20;83.20
16825;DHT22;8529;48.108;-1.706;2022-09-17T11:31:02;18.20;81.70
16825;DHT22;8529;48.108;-1.706;2022-09-17T11:34:00;18.20;80.80
16825;DHT22;8529;48.108;-1.706;2022-09-17T11:36:35;18.10;80.90
16825;DHT22;8529;48.108;-1.706;2022-09-17T11:39:09;18.10;82.40
16825;DHT22;8529;48.108;-1.706;2022-09-17T11:41:41;18.20;80.90
16825;DHT22;8529;48.108;-1.706;2022-09-17T11:44:14;18.10;80.90
16825;DHT22;8529;48.108;-1.706;2022-09-17T11:46:45;18.10;80.60
16825;DHT22;8529;48.108;-1.706;2022-09-17T11:49:20;18.10;81.40
16825;DHT22;8529;48.108;-1.706;2022-09-17T11:51:53;18.10;83.20
16825;DHT22;8529;48.108;-1.706;2022-09-17T11:54:24;18.20;83.20
16825;DHT22;8529;48.108;-1.706;2022-09-17T11:57:00;18.20;82.30
16825;DHT22;8529;48.108;-1.706;2022-09-17T11:59:32;18.20;81.50
16825;DHT22;8529;48.108;-1.706;2022-09-17T12:02:04;18.20;81.50
16825;DHT22;8529;48.108;-1.706;2022-09-17T12:04:40;18.20;80.80
16825;DHT22;8529;48.108;-1.706;2022-09-17T12:07:24;18.20;79.80
16825;DHT22;8529;48.108;-1.706;2022-09-17T12:09:56;18.20;81.00
16825;DHT22;8529;48.108;-1.706;2022-09-17T12:12:25;18.20;80.30
16825;DHT22;8529;48.108;-1.706;2022-09-17T12:14:58;18.20;78.90
16825;DHT22;8529;48.108;-1.706;2022-09-17T12:17:33;18.20;78.40
16825;DHT22;8529;48.108;-1.706;2022-09-17T12:20:06;18.30;77.90
16825;DHT22;8529;48.108;-1.706;2022-09-17T12:22:37;18.30;78.40
16825;DHT22;8529;48.108;-1.706;2022-09-17T12:25:11;18.30;78.50
16825;DHT22;8529;48.108;-1.706;2022-09-17T12:27:42;18.40;78.80
16825;DHT22;8529;48.108;-1.706;2022-09-17T12:30:17;18.40;76.90
16825;DHT22;8529;48.108;-1.706;2022-09-17T12:33:03;18.40;78.20
16825;DHT22;8529;48.108;-1.706;2022-09-17T12:38:57;18.30;81.10
16825;DHT22;8529;48.108;-1.706;2022-09-17T12:41:34;18.30;81.70
16825;DHT22;8529;48.108;-1.706;2022-09-17T12:44:14;18.20;83.40
16825;DHT22;8529;48.108;-1.706;2022-09-17T12:46:59;18.20;84.20
16825;DHT22;8529;48.108;-1.706;2022-09-17T12:49:49;18.20;82.80
16825;DHT22;8529;48.108;-1.706;2022-09-17T12:52:24;18.20;80.00
16825;DHT22;8529;48.108;-1.706;2022-09-17T12:55:19;18.20;81.60
16825;DHT22;8529;48.108;-1.706;2022-09-17T12:57:54;18.20;82.30
16825;DHT22;8529;48.108;-1.706;2022-09-17T13:00:22;18.20;82.40
16825;DHT22;8529;48.108;-1.706;2022-09-17T13:02:59;18.20;83.00
16825;DHT22;8529;48.108;-1.706;2022-09-17T13:05:49;18.20;81.50
16825;DHT22;8529;48.108;-1.706;2022-09-17T13:11:53;18.30;78.50
16825;DHT22;8529;48.108;-1.706;2022-09-17T13:14:31;18.30;78.70
16825;DHT22;8529;48.108;-1.706;2022-09-17T13:17:02;18.30;79.20
16825;DHT22;8529;48.108;-1.706;2022-09-17T13:19:36;18.30;79.30
16825;DHT22;8529;48.108;-1.706;2022-09-17T13:22:12;18.40;79.20
16825;DHT22;8529;48.108;-1.706;2022-09-17T13:24:42;18.40;79.10
16825;DHT22;8529;48.108;-1.706;2022-09-17T13:27:21;18.40;79.30
16825;DHT22;8529;48.108;-1.706;2022-09-17T13:29:59;18.40;77.30
16825;DHT22;8529;48.108;-1.706;2022-09-17T13:32:56;18.40;78.20
16825;DHT22;8529;48.108;-1.706;2022-09-17T13:35:49;18.40;77.10
16825;DHT22;8529;48.108;-1.706;2022-09-17T13:38:18;18.30;76.40
16825;DHT22;8529;48.108;-1.706;2022-09-17T13:40:46;18.20;77.20
16825;DHT22;8529;48.108;-1.706;2022-09-17T13:43:15;18.10;77.60
16825;DHT22;8529;48.108;-1.706;2022-09-17T13:46:09;18.10;78.30
16825;DHT22;8529;48.108;-1.706;2022-09-17T13:48:47;18.10;77.90
16825;DHT22;8529;48.108;-1.706;2022-09-17T13:54:35;18.20;78.30
16825;DHT22;8529;48.108;-1.706;2022-09-17T13:57:09;18.30;77.40
16825;DHT22;8529;48.108;-1.706;2022-09-17T13:59:37;18.30;75.90
16825;DHT22;8529;48.108;-1.706;2022-09-17T14:02:32;18.30;76.30
16825;DHT22;8529;48.108;-1.706;2022-09-17T14:08:22;18.30;76.50
16825;DHT22;8529;48.108;-1.706;2022-09-17T14:10:56;18.30;76.70
16825;DHT22;8529;48.108;-1.706;2022-09-17T14:13:37;18.30;77.60
16825;DHT22;8529;48.108;-1.706;2022-09-17T14:16:43;18.30;77.10
16825;DHT22;8529;48.108;-1.706;2022-09-17T14:19:31;18.30;74.40
16825;DHT22;8529;48.108;-1.706;2022-09-17T14:22:11;18.30;75.40
16825;DHT22;8529;48.108;-1.706;2022-09-17T14:24:45;18.30;74.30
16825;DHT22;8529;48.108;-1.706;2022-09-17T14:27:27;18.30;75.30
16825;DHT22;8529;48.108;-1.706;2022-09-17T14:30:09;18.30;75.20
16825;DHT22;8529;48.108;-1.706;2022-09-17T14:32:39;18.30;75.60
16825;DHT22;8529;48.108;-1.706;2022-09-17T14:35:17;18.20;75.80
16825;DHT22;8529;48.108;-1.706;2022-09-17T14:37:50;18.20;75.90
16825;DHT22;8529;48.108;-1.706;2022-09-17T14:40:20;18.20;77.50
16825;DHT22;8529;48.108;-1.706;2022-09-17T14:42:52;18.20;78.60
16825;DHT22;8529;48.108;-1.706;2022-09-17T14:45:23;18.20;78.20
16825;DHT22;8529;48.108;-1.706;2022-09-17T14:48:18;18.20;76.60
16825;DHT22;8529;48.108;-1.706;2022-09-17T14:50:46;18.20;75.90
16825;DHT22;8529;48.108;-1.706;2022-09-17T14:53:15;18.20;76.40
16825;DHT22;8529;48.108;-1.706;2022-09-17T14:55:43;18.20;76.10
16825;DHT22;8529;48.108;-1.706;2022-09-17T14:58:29;18.20;76.30
16825;DHT22;8529;48.108;-1.706;2022-09-17T15:00:57;18.20;76.20
16825;DHT22;8529;48.108;-1.706;2022-09-17T15:03:24;18.20;76.40
16825;DHT22;8529;48.108;-1.706;2022-09-17T15:05:52;18.10;77.30
16825;DHT22;8529;48.108;-1.706;2022-09-17T15:08:20;18.10;76.70
16825;DHT22;8529;48.108;-1.706;2022-09-17T15:10:50;18.10;76.50
16825;DHT22;8529;48.108;-1.706;2022-09-17T15:13:20;18.10;77.30
16825;DHT22;8529;48.108;-1.706;2022-09-17T15:15:57;18.10;77.80
16825;DHT22;8529;48.108;-1.706;2022-09-17T15:18:35;18.10;77.10
16825;DHT22;8529;48.108;-1.706;2022-09-17T15:21:03;18.10;76.80
16825;DHT22;8529;48.108;-1.706;2022-09-17T15:23:33;18.10;75.50
16825;DHT22;8529;48.108;-1.706;2022-09-17T15:26:01;18.10;76.30
16825;DHT22;8529;48.108;-1.706;2022-09-17T15:28:32;18.00;75.00
16825;DHT22;8529;48.108;-1.706;2022-09-17T15:31:03;18.00;74.80
16825;DHT22;8529;48.108;-1.706;2022-09-17T15:33:31;18.00;75.30
16825;DHT22;8529;48.108;-1.706;2022-09-17T15:36:01;18.00;75.40
16825;DHT22;8529;48.108;-1.706;2022-09-17T15:38:32;18.00;75.80
16825;DHT22;8529;48.108;-1.706;2022-09-17T15:41:27;18.00;75.60
16825;DHT22;8529;48.108;-1.706;2022-09-17T15:44:06;18.00;74.80
16825;DHT22;8529;48.108;-1.706;2022-09-17T15:46:34;18.00;74.60
16825;DHT22;8529;48.108;-1.706;2022-09-17T15:49:02;18.00;74.80
16825;DHT22;8529;48.108;-1.706;2022-09-17T15:51:30;18.00;74.20
16825;DHT22;8529;48.108;-1.706;2022-09-17T15:53:59;18.00;73.80
16825;DHT22;8529;48.108;-1.706;2022-09-17T15:56:27;18.00;71.80
16825;DHT22;8529;48.108;-1.706;2022-09-17T15:58:59;17.90;71.10
16825;DHT22;8529;48.108;-1.706;2022-09-17T16:01:53;17.90;71.50
16825;DHT22;8529;48.108;-1.706;2022-09-17T16:04:31;17.90;72.20
16825;DHT22;8529;48.108;-1.706;2022-09-17T16:07:25;17.90;73.10
16825;DHT22;8529;48.108;-1.706;2022-09-17T16:09:52;17.90;73.10
16825;DHT22;8529;48.108;-1.706;2022-09-17T16:12:20;17.90;73.60
16825;DHT22;8529;48.108;-1.706;2022-09-17T16:14:50;17.90;73.50
16825;DHT22;8529;48.108;-1.706;2022-09-17T16:17:31;17.80;72.70
16825;DHT22;8529;48.108;-1.706;2022-09-17T16:20:06;17.80;72.60
16825;DHT22;8529;48.108;-1.706;2022-09-17T16:22:34;17.80;72.50
16825;DHT22;8529;48.108;-1.706;2022-09-17T16:25:01;17.80;72.40
16825;DHT22;8529;48.108;-1.706;2022-09-17T16:27:31;17.80;71.10
16825;DHT22;8529;48.108;-1.706;2022-09-17T16:30:04;17.80;70.80